createdAt,value
2018-11-28T00:01:22.032Z,3.10
2018-11-28T00:05:30.391Z,3.10
2018-11-28T00:09:38.670Z,3.10
2018-11-28T00:13:46.991Z,3.10
2018-11-28T00:17:55.318Z,3.10
2018-11-28T00:22:03.691Z,3.10
2018-11-28T00:26:12.032Z,3.20
2018-11-28T00:30:22.040Z,3.20
2018-11-28T00:34:30.348Z,3.20
2018-11-28T00:38:38.709Z,3.20
2018-11-28T00:42:46.965Z,3.20
2018-11-28T00:46:55.407Z,3.30
2018-11-28T00:51:03.852Z,3.30
2018-11-28T00:55:15.081Z,3.30
2018-11-28T00:59:23.454Z,3.30
2018-11-28T01:03:31.761Z,3.30
2018-11-28T01:07:40.448Z,3.30
2018-11-28T01:11:48.735Z,3.30
2018-11-28T01:15:57.085Z,3.30
2018-11-28T01:20:08.760Z,3.30
2018-11-28T01:24:17.071Z,3.30
2018-11-28T01:28:25.412Z,3.30
2018-11-28T01:32:33.721Z,3.30
2018-11-28T01:36:42.023Z,3.30
2018-11-28T01:40:50.486Z,3.30
2018-11-28T01:44:58.781Z,3.30
2018-11-28T01:49:07.166Z,3.30
2018-11-28T01:53:15.440Z,3.30
2018-11-28T01:57:23.769Z,3.30
2018-11-28T02:01:32.034Z,3.40
2018-11-28T02:05:40.342Z,3.40
2018-11-28T02:09:48.667Z,3.40
2018-11-28T02:13:56.972Z,3.40
2018-11-28T02:18:05.295Z,3.40
2018-11-28T02:22:13.631Z,3.30
2018-11-28T02:26:21.914Z,3.30
2018-11-28T02:30:30.239Z,3.30
2018-11-28T02:34:38.577Z,3.30
2018-11-28T02:38:46.841Z,3.30
2018-11-28T02:42:55.148Z,3.30
2018-11-28T02:47:03.516Z,3.40
2018-11-28T02:51:11.877Z,3.30
2018-11-28T02:55:20.236Z,3.30
2018-11-28T02:59:28.672Z,3.40
2018-11-28T03:03:36.940Z,3.40
2018-11-28T03:07:45.211Z,3.40
2018-11-28T03:11:53.824Z,3.40
2018-11-28T03:16:05.592Z,3.40
2018-11-28T03:20:13.865Z,3.40
2018-11-28T03:24:22.271Z,3.40
2018-11-28T03:28:30.579Z,3.50
2018-11-28T03:36:46.917Z,3.50
2018-11-28T03:40:55.293Z,3.50
2018-11-28T03:45:04.014Z,3.50
2018-11-28T03:49:12.288Z,3.60
2018-11-28T03:53:20.575Z,3.60
2018-11-28T03:57:28.845Z,3.60
2018-11-28T04:01:37.166Z,3.60
2018-11-28T04:05:45.414Z,3.60
2018-11-28T04:09:53.727Z,3.60
2018-11-28T04:14:02.013Z,3.70
2018-11-28T04:18:10.334Z,3.70
2018-11-28T04:22:18.605Z,3.70
2018-11-28T04:26:26.935Z,3.70
2018-11-28T04:30:35.230Z,3.80
2018-11-28T04:34:43.497Z,3.80
2018-11-28T04:38:51.790Z,3.80
2018-11-28T04:43:00.058Z,3.80
2018-11-28T04:47:08.319Z,3.80
2018-11-28T04:51:16.658Z,3.90
2018-11-28T04:55:24.915Z,3.80
2018-11-28T04:59:33.239Z,3.90
2018-11-28T05:03:41.524Z,3.90
2018-11-28T05:07:50.535Z,3.90
2018-11-28T05:11:58.913Z,3.90
2018-11-28T05:16:07.203Z,3.90
2018-11-28T05:20:20.540Z,3.90
2018-11-28T05:24:28.949Z,3.90
2018-11-28T05:28:37.258Z,3.90
2018-11-28T05:32:45.575Z,3.90
2018-11-28T05:36:53.859Z,4.00
2018-11-28T05:41:02.146Z,4.00
2018-11-28T05:45:11.036Z,4.00
2018-11-28T05:57:35.347Z,4.20
2018-11-28T06:01:43.678Z,4.20
2018-11-28T06:05:51.934Z,4.20
2018-11-28T06:10:00.222Z,4.20
2018-11-28T06:14:08.588Z,4.20
2018-11-28T06:18:16.891Z,4.20
2018-11-28T06:22:25.172Z,4.30
2018-11-28T06:26:33.458Z,4.30
2018-11-28T06:30:41.731Z,4.30
2018-11-28T06:34:50.053Z,4.30
2018-11-28T06:38:58.339Z,4.30
2018-11-28T06:43:06.599Z,4.40
2018-11-28T06:47:14.908Z,4.30
2018-11-28T06:51:23.230Z,4.30
2018-11-28T06:55:31.542Z,4.30
2018-11-28T07:03:47.902Z,4.20
2018-11-28T07:07:56.214Z,4.20
2018-11-28T07:12:04.556Z,4.30
2018-11-28T07:16:17.120Z,4.30
2018-11-28T07:20:25.565Z,4.30
2018-11-28T07:24:33.938Z,4.30
2018-11-28T07:28:42.257Z,4.40
2018-11-28T07:32:52.052Z,4.40
2018-11-28T07:37:00.335Z,4.40
2018-11-28T07:41:08.660Z,4.50
2018-11-28T07:45:16.934Z,4.50
2018-11-28T07:49:25.277Z,4.50
2018-11-28T07:53:33.558Z,4.50
2018-11-28T07:57:41.897Z,4.60
2018-11-28T08:01:50.185Z,4.60
2018-11-28T08:05:58.450Z,4.60
2018-11-28T08:10:09.213Z,4.60
2018-11-28T08:14:17.484Z,4.70
2018-11-28T08:18:25.728Z,4.70
2018-11-28T08:22:34.081Z,4.80
2018-11-28T08:26:42.414Z,4.80
2018-11-28T08:30:50.814Z,4.80
2018-11-28T08:34:59.146Z,4.90
2018-11-28T08:39:08.150Z,4.90
2018-11-28T08:43:16.479Z,4.90
2018-11-28T08:47:24.885Z,5.00
2018-11-28T08:51:33.187Z,5.00
2018-11-28T08:55:41.504Z,5.00
2018-11-28T08:59:49.829Z,5.10
2018-11-28T09:03:58.106Z,5.10
2018-11-28T09:08:06.340Z,5.20
2018-11-28T09:12:14.651Z,5.30
2018-11-28T09:16:22.894Z,5.30
2018-11-28T09:20:31.169Z,5.30
2018-11-28T09:24:39.476Z,5.40
2018-11-28T09:28:48.215Z,5.40
2018-11-28T09:32:56.522Z,5.50
2018-11-28T09:37:04.939Z,5.50
2018-11-28T09:41:13.233Z,5.50
2018-11-28T09:45:21.652Z,5.60
2018-11-28T09:49:29.947Z,5.60
2018-11-28T09:53:38.214Z,5.60
2018-11-28T09:57:46.532Z,5.70
2018-11-28T10:01:54.763Z,5.70
2018-11-28T10:06:04.234Z,5.80
2018-11-28T10:10:13.318Z,5.80
2018-11-28T10:14:23.644Z,5.90
2018-11-28T10:18:31.979Z,5.90
2018-11-28T10:22:40.700Z,5.90
2018-11-28T10:26:48.945Z,6.00
2018-11-28T10:30:57.208Z,6.10
2018-11-28T10:35:05.668Z,6.10
2018-11-28T10:39:13.951Z,6.10
2018-11-28T10:43:22.210Z,6.10
2018-11-28T10:47:30.496Z,6.20
2018-11-28T10:51:38.836Z,6.20
2018-11-28T10:55:47.080Z,6.20
2018-11-28T10:59:55.419Z,6.20
2018-11-28T11:04:23.971Z,6.30
2018-11-28T11:08:37.709Z,6.30
2018-11-28T11:12:51.331Z,6.40
2018-11-28T11:16:59.638Z,6.40
2018-11-28T11:21:07.896Z,6.40
2018-11-28T11:25:16.287Z,6.50
2018-11-28T11:29:24.656Z,6.50
2018-11-28T11:33:32.967Z,6.50
2018-11-28T11:37:41.238Z,6.50
2018-11-28T11:41:49.489Z,6.50
2018-11-28T11:45:57.776Z,6.60
2018-11-28T11:50:14.392Z,6.60
2018-11-28T11:54:22.680Z,6.70
2018-11-28T11:58:30.928Z,6.70
2018-11-28T12:02:39.405Z,6.70
2018-11-28T12:06:47.772Z,6.80
2018-11-28T12:10:56.079Z,6.80
2018-11-28T12:15:05.180Z,6.80
2018-11-28T12:19:13.529Z,6.80
2018-11-28T12:23:21.770Z,6.80
2018-11-28T12:27:30.043Z,6.80
2018-11-28T12:31:38.342Z,6.80
2018-11-28T12:35:46.620Z,6.80
2018-11-28T12:39:55.043Z,6.90
2018-11-28T12:44:03.323Z,6.90
2018-11-28T12:48:11.591Z,6.90
2018-11-28T12:52:19.930Z,6.90
2018-11-28T12:56:28.186Z,7.00
2018-11-28T13:00:36.502Z,7.00
2018-11-28T13:04:44.795Z,7.00
2018-11-28T13:08:53.146Z,7.00
2018-11-28T13:13:01.545Z,7.00
2018-11-28T13:17:09.831Z,7.00
2018-11-28T13:21:18.114Z,7.00
2018-11-28T13:25:27.305Z,6.90
2018-11-28T13:29:35.593Z,6.90
2018-11-28T13:33:43.934Z,7.00
2018-11-28T13:37:53.517Z,7.00
2018-11-28T13:42:01.845Z,7.00
2018-11-28T13:50:18.190Z,7.00
2018-11-28T13:54:26.546Z,7.00
2018-11-28T13:58:34.914Z,7.00
2018-11-28T14:02:43.181Z,7.00
2018-11-28T14:06:51.455Z,7.00
2018-11-28T14:10:59.737Z,7.00
2018-11-28T14:15:16.741Z,7.10
2018-11-28T14:19:25.001Z,7.10
2018-11-28T14:23:33.255Z,7.10
2018-11-28T14:27:41.908Z,7.10
2018-11-28T14:31:50.146Z,7.10
2018-11-28T14:35:58.434Z,7.10
2018-11-28T14:40:12.466Z,7.10
2018-11-28T14:44:20.740Z,7.10
2018-11-28T14:48:29.036Z,7.10
2018-11-28T14:52:37.251Z,7.10
2018-11-28T14:56:45.526Z,7.10
2018-11-28T15:00:53.832Z,7.10
2018-11-28T15:05:02.137Z,7.10
2018-11-28T15:09:16.415Z,7.10
2018-11-28T15:13:24.683Z,7.10
2018-11-28T15:17:32.987Z,7.10
2018-11-28T15:21:41.234Z,7.00
2018-11-28T15:25:49.503Z,6.90
2018-11-28T15:29:57.849Z,6.90
2018-11-28T15:34:06.696Z,6.80
2018-11-28T15:38:14.976Z,6.70
2018-11-28T15:42:23.271Z,6.60
2018-11-28T15:46:32.576Z,6.60
2018-11-28T15:50:40.859Z,6.50
2018-11-28T15:54:49.155Z,6.50
2018-11-28T15:58:57.466Z,6.50
2018-11-28T16:03:06.334Z,6.40
2018-11-28T16:07:14.617Z,6.50
2018-11-28T16:11:23.891Z,6.40
2018-11-28T16:15:34.836Z,6.40
2018-11-28T16:19:43.216Z,6.40
2018-11-28T16:23:52.658Z,6.40
2018-11-28T16:27:59.797Z,6.40
2018-11-28T16:32:08.113Z,6.40
2018-11-28T16:36:16.420Z,6.40
2018-11-28T16:40:24.687Z,6.40
2018-11-28T16:44:34.175Z,6.40
2018-11-28T16:48:42.476Z,6.40
2018-11-28T16:52:50.769Z,6.40
2018-11-28T16:56:59.444Z,6.30
2018-11-28T17:01:07.360Z,6.40
2018-11-28T17:05:17.520Z,6.40
2018-11-28T17:09:25.948Z,6.40
2018-11-28T17:13:34.195Z,6.40
2018-11-28T17:17:48.090Z,6.30
2018-11-28T17:21:56.480Z,6.30
2018-11-28T17:26:04.764Z,6.30
2018-11-28T17:30:18.769Z,6.20
2018-11-28T17:34:23.569Z,6.20
2018-11-28T17:38:31.827Z,6.20
2018-11-28T17:46:48.188Z,6.20
2018-11-28T17:50:56.639Z,6.20
2018-11-28T17:55:06.709Z,6.20
2018-11-28T17:59:15.056Z,6.10
2018-11-28T18:03:24.471Z,6.10
2018-11-28T18:07:32.740Z,6.20
2018-11-28T18:11:41.046Z,6.20
2018-11-28T18:19:59.065Z,6.20
2018-11-28T18:24:07.549Z,6.20
2018-11-28T18:28:15.838Z,6.20
2018-11-28T18:32:24.231Z,6.20
2018-11-28T18:36:32.567Z,6.20
2018-11-28T18:40:40.837Z,6.20
2018-11-28T18:44:49.150Z,6.20
2018-11-28T18:48:57.463Z,6.20
2018-11-28T18:53:06.527Z,6.20
2018-11-28T18:57:14.847Z,6.30
2018-11-28T19:01:23.151Z,6.30
2018-11-28T19:05:31.437Z,6.30
2018-11-28T19:09:45.121Z,6.20
2018-11-28T19:13:53.400Z,6.30
2018-11-28T19:18:01.664Z,6.30
2018-11-28T19:22:09.985Z,6.30
2018-11-28T19:26:18.273Z,6.30
2018-11-28T19:34:35.504Z,6.30
2018-11-28T19:38:43.828Z,6.30
2018-11-28T19:42:52.113Z,6.30
2018-11-28T19:47:00.421Z,6.40
2018-11-28T19:51:08.678Z,6.40
2018-11-28T19:55:16.955Z,6.40
2018-11-28T19:59:25.196Z,6.40
2018-11-28T20:03:33.430Z,6.40
2018-11-28T20:07:43.260Z,6.40
2018-11-28T20:11:51.503Z,6.40
2018-11-28T20:15:59.763Z,6.40
2018-11-28T20:20:13.019Z,6.40
2018-11-28T20:24:21.263Z,6.50
2018-11-28T20:28:29.567Z,6.50
2018-11-28T20:32:37.816Z,6.50
2018-11-28T20:36:46.118Z,6.50
2018-11-28T20:40:54.425Z,6.50
2018-11-28T20:45:02.775Z,6.50
2018-11-28T20:49:11.071Z,6.50
2018-11-28T20:53:20.253Z,6.50
2018-11-28T20:57:28.531Z,6.60
2018-11-28T21:01:37.014Z,6.60
2018-11-28T21:05:45.258Z,6.60
2018-11-28T21:09:53.827Z,6.60
2018-11-28T21:14:02.310Z,6.60
2018-11-28T21:18:10.591Z,6.60
2018-11-28T21:22:18.893Z,6.70
2018-11-28T21:26:27.160Z,6.60
2018-11-28T21:30:35.508Z,6.70
2018-11-28T21:34:43.820Z,6.70
2018-11-28T21:38:52.077Z,6.70
2018-11-28T21:43:00.419Z,6.70
2018-11-28T21:47:08.627Z,6.70
2018-11-28T21:51:16.880Z,6.70
2018-11-28T21:55:25.326Z,6.70
2018-11-28T21:59:33.598Z,6.70
2018-11-28T22:03:41.835Z,6.80
2018-11-28T22:07:50.113Z,6.80
2018-11-28T22:11:58.349Z,6.80
2018-11-28T22:16:06.706Z,6.80
2018-11-28T22:20:15.283Z,6.80
2018-11-28T22:24:23.549Z,6.80
2018-11-28T22:28:31.878Z,6.80
2018-11-28T22:32:40.447Z,6.90
2018-11-28T22:36:48.659Z,6.90
2018-11-28T22:40:56.995Z,6.90
2018-11-28T22:45:08.427Z,6.90
2018-11-28T22:49:16.750Z,7.00
2018-11-28T22:53:25.059Z,7.00
2018-11-28T22:57:33.367Z,7.00
2018-11-28T23:02:53.173Z,7.00
2018-11-28T23:07:01.495Z,7.00
2018-11-28T23:11:09.797Z,7.10
2018-11-28T23:15:18.104Z,7.10
2018-11-28T23:19:27.465Z,7.10
2018-11-28T23:23:35.850Z,7.10
2018-11-28T23:27:44.192Z,7.10
2018-11-28T23:31:52.488Z,7.10
2018-11-28T23:36:00.791Z,7.20
2018-11-28T23:40:12.238Z,7.20
2018-11-28T23:44:20.649Z,7.20
2018-11-28T23:48:29.010Z,7.20
2018-11-28T23:52:37.372Z,7.20
2018-11-28T23:56:45.639Z,7.20
